createdAt,value
2019-04-28T00:00:45.482Z,0.30
2019-04-28T00:03:13.888Z,0.23
2019-04-28T00:05:42.289Z,0.20
2019-04-28T00:08:10.932Z,0.40
2019-04-28T00:10:39.462Z,0.50
2019-04-28T00:13:08.032Z,0.40
2019-04-28T00:15:36.769Z,0.30
2019-04-28T00:18:05.253Z,0.30
2019-04-28T00:20:52.195Z,0.30
2019-04-28T00:23:22.239Z,0.30
2019-04-28T00:25:57.672Z,0.40
2019-04-28T00:28:26.081Z,0.50
2019-04-28T00:30:54.481Z,0.27
2019-04-28T00:33:22.886Z,0.50
2019-04-28T00:35:51.570Z,0.20
2019-04-28T00:38:21.588Z,0.23
2019-04-28T00:40:51.015Z,0.47
2019-04-28T00:43:21.795Z,0.20
2019-04-28T00:45:51.297Z,0.30
2019-04-28T00:48:20.939Z,0.33
2019-04-28T00:50:49.455Z,0.33
2019-04-28T00:53:17.859Z,0.20
2019-04-28T00:55:46.253Z,0.30
2019-04-28T00:58:14.361Z,0.43
2019-04-28T01:00:44.464Z,0.40
2019-04-28T01:03:12.540Z,0.20
2019-04-28T01:05:41.214Z,0.40
2019-04-28T01:08:10.978Z,0.30
2019-04-28T01:10:41.021Z,0.40
2019-04-28T01:13:11.599Z,0.30
2019-04-28T01:15:50.582Z,0.27
2019-04-28T01:18:23.657Z,0.33
2019-04-28T01:20:51.796Z,0.20
2019-04-28T01:23:20.374Z,0.20
2019-04-28T01:25:50.069Z,0.30
2019-04-28T01:28:19.627Z,0.40
2019-04-28T01:30:50.336Z,0.20
2019-04-28T01:33:20.644Z,0.30
2019-04-28T01:35:49.420Z,0.20
2019-04-28T01:38:18.024Z,0.20
2019-04-28T01:40:46.897Z,0.20
2019-04-28T01:43:14.969Z,0.30
2019-04-28T01:45:43.370Z,0.13
2019-04-28T01:48:11.768Z,0.20
2019-04-28T01:50:40.168Z,0.10
2019-04-28T01:53:09.744Z,0.30
2019-04-28T01:55:39.549Z,0.30
2019-04-28T01:58:09.593Z,0.20
2019-04-28T02:00:40.430Z,0.20
2019-04-28T02:03:10.381Z,0.30
2019-04-28T02:05:40.551Z,0.30
2019-04-28T02:08:10.192Z,0.10
2019-04-28T02:10:40.167Z,0.20
2019-04-28T02:13:09.583Z,0.40
2019-04-28T02:15:40.046Z,0.20
2019-04-28T02:18:09.960Z,0.20
2019-04-28T02:20:40.000Z,0.20
2019-04-28T02:23:12.841Z,0.20
2019-04-28T02:25:41.226Z,0.20
2019-04-28T02:28:11.745Z,0.10
2019-04-28T02:30:45.489Z,0.13
2019-04-28T02:33:11.161Z,0.30
2019-04-28T02:35:41.800Z,0.20
2019-04-28T02:38:11.479Z,0.10
2019-04-28T02:40:40.708Z,0.27
2019-04-28T02:43:11.445Z,0.10
2019-04-28T02:45:41.227Z,0.10
2019-04-28T02:48:11.589Z,0.20
2019-04-28T02:50:41.648Z,0.10
2019-04-28T02:53:14.616Z,0.10
2019-04-28T02:55:43.026Z,0.10
2019-04-28T02:58:13.370Z,0.00
2019-04-28T03:01:00.392Z,0.13
2019-04-28T03:03:11.341Z,0.07
2019-04-28T03:05:41.247Z,0.00
2019-04-28T03:08:11.118Z,0.20
2019-04-28T03:10:40.995Z,0.20
2019-04-28T03:13:10.824Z,0.20
2019-04-28T03:15:41.390Z,0.00
2019-04-28T03:18:11.465Z,0.20
2019-04-28T03:20:41.782Z,0.10
2019-04-28T03:23:12.394Z,0.20
2019-04-28T03:25:42.368Z,0.10
2019-04-28T03:28:12.414Z,0.10
2019-04-28T03:30:45.382Z,0.20
2019-04-28T03:33:23.841Z,0.10
2019-04-28T03:35:53.067Z,0.20
2019-04-28T03:38:21.227Z,0.27
2019-04-28T03:40:51.274Z,0.20
2019-04-28T03:43:21.183Z,0.10
2019-04-28T03:45:56.334Z,0.20
2019-04-28T03:48:24.721Z,0.10
2019-04-28T03:50:53.144Z,0.30
2019-04-28T03:53:21.597Z,0.20
2019-04-28T03:55:51.339Z,0.20
2019-04-28T03:58:23.640Z,0.20
2019-04-28T04:00:50.806Z,0.23
2019-04-28T04:03:20.930Z,0.20
2019-04-28T04:05:50.831Z,0.10
2019-04-28T04:08:20.955Z,0.30
2019-04-28T04:10:54.108Z,0.20
2019-04-28T04:13:33.250Z,0.20
2019-04-28T04:16:03.338Z,0.20
2019-04-28T04:18:53.775Z,0.10
2019-04-28T04:21:22.599Z,0.30
2019-04-28T04:23:51.148Z,0.20
2019-04-28T04:26:21.256Z,0.10
2019-04-28T04:28:51.496Z,0.20
2019-04-28T04:31:20.200Z,0.37
2019-04-28T04:33:50.635Z,0.20
2019-04-28T04:36:20.825Z,0.27
2019-04-28T04:38:51.245Z,0.20
2019-04-28T04:41:20.209Z,0.20
2019-04-28T04:43:51.057Z,0.20
2019-04-28T04:46:21.911Z,0.20
2019-04-28T04:48:50.919Z,0.20
2019-04-28T04:51:21.229Z,0.30
2019-04-28T04:53:51.011Z,0.20
2019-04-28T04:56:20.968Z,0.43
2019-04-28T04:58:50.610Z,0.30
2019-04-28T05:01:23.558Z,0.37
2019-04-28T05:03:56.280Z,0.20
2019-04-28T05:06:39.758Z,0.10
2019-04-28T05:09:10.338Z,0.20
2019-04-28T05:11:40.148Z,0.20
2019-04-28T05:14:11.504Z,0.30
2019-04-28T05:16:39.848Z,0.20
2019-04-28T05:19:10.188Z,0.37
2019-04-28T05:21:40.145Z,0.30
2019-04-28T05:24:15.767Z,0.30
2019-04-28T05:26:47.685Z,0.20
2019-04-28T05:29:15.257Z,0.27
2019-04-28T05:31:43.648Z,0.20
2019-04-28T05:34:12.072Z,0.10
2019-04-28T05:36:44.416Z,0.40
2019-04-28T05:39:10.659Z,0.20
2019-04-28T05:41:40.013Z,0.30
2019-04-28T05:44:10.082Z,0.30
2019-04-28T05:46:40.187Z,0.27
2019-04-28T05:49:16.224Z,0.20
2019-04-28T05:51:46.252Z,0.30
2019-04-28T05:54:29.935Z,0.30
2019-04-28T05:57:02.605Z,0.30
2019-04-28T05:59:41.897Z,0.30
2019-04-28T06:02:12.313Z,0.37
2019-04-28T06:04:40.995Z,0.30
2019-04-28T06:07:16.757Z,0.33
2019-04-28T06:09:46.800Z,0.30
2019-04-28T06:12:16.770Z,0.30
2019-04-28T06:14:45.181Z,0.20
2019-04-28T06:17:13.580Z,0.30
2019-04-28T06:19:42.063Z,0.35
2019-04-28T06:22:10.468Z,0.50
2019-04-28T06:24:38.877Z,0.42
2019-04-28T06:27:07.277Z,0.25
2019-04-28T06:29:35.684Z,0.35
2019-04-28T06:32:03.824Z,0.37
2019-04-28T06:34:32.223Z,0.35
2019-04-28T06:37:00.633Z,0.42
2019-04-28T06:39:29.049Z,0.40
2019-04-28T06:41:57.523Z,0.23
2019-04-28T06:44:25.927Z,0.37
2019-04-28T06:46:54.326Z,0.40
2019-04-28T06:49:22.732Z,0.20
2019-04-28T06:51:51.144Z,0.15
2019-04-28T06:54:19.562Z,0.30
2019-04-28T06:56:47.961Z,0.20
2019-04-28T06:59:16.369Z,0.30
2019-04-28T07:01:44.780Z,0.50
2019-04-28T07:04:13.189Z,0.30
2019-04-28T07:06:41.592Z,0.20
2019-04-28T07:09:09.767Z,0.30
2019-04-28T07:11:38.215Z,0.42
2019-04-28T07:14:06.630Z,0.40
2019-04-28T07:16:34.705Z,0.30
2019-04-28T07:19:03.118Z,0.50
2019-04-28T07:21:33.151Z,0.40
2019-04-28T07:24:01.558Z,0.30
2019-04-28T07:26:29.952Z,0.30
2019-04-28T07:28:58.479Z,0.53
2019-04-28T07:31:26.885Z,0.40
2019-04-28T07:33:55.280Z,0.30
2019-04-28T07:36:23.349Z,0.45
2019-04-28T07:38:51.753Z,0.20
2019-04-28T07:41:20.167Z,0.30
2019-04-28T07:43:48.632Z,0.28
2019-04-28T07:46:17.057Z,0.30
2019-04-28T07:48:45.482Z,0.20
2019-04-28T07:51:13.885Z,0.40
2019-04-28T07:53:49.916Z,0.10
2019-04-28T07:56:18.009Z,0.42
2019-04-28T07:58:46.442Z,0.10
2019-04-28T08:01:14.894Z,0.40
2019-04-28T08:03:49.664Z,0.30
2019-04-28T08:06:13.450Z,0.20
2019-04-28T08:08:41.918Z,0.17
2019-04-28T08:11:09.989Z,0.23
2019-04-28T08:13:38.393Z,0.50
2019-04-28T08:16:26.218Z,0.30
2019-04-28T08:18:54.625Z,0.30
2019-04-28T08:21:22.720Z,0.40
2019-04-28T08:23:51.120Z,0.20
2019-04-28T08:26:19.608Z,0.20
2019-04-28T08:28:48.006Z,0.30
2019-04-28T08:31:17.735Z,0.40
2019-04-28T08:34:01.728Z,0.40
2019-04-28T08:36:20.565Z,0.50
2019-04-28T08:38:48.983Z,0.30
2019-04-28T08:41:17.465Z,0.30
2019-04-28T08:43:45.695Z,0.30
2019-04-28T08:46:14.110Z,0.33
2019-04-28T08:48:42.515Z,0.65
2019-04-28T08:51:10.943Z,1.02
2019-04-28T08:53:39.026Z,0.25
2019-04-28T08:56:07.505Z,0.55
2019-04-28T08:58:35.897Z,0.37
2019-04-28T09:01:04.383Z,0.37
2019-04-28T09:03:32.782Z,0.53
2019-04-28T09:06:01.514Z,0.30
2019-04-28T09:08:29.702Z,0.30
2019-04-28T09:10:58.105Z,0.20
2019-04-28T09:13:26.505Z,0.30
2019-04-28T09:15:54.625Z,0.20
2019-04-28T09:18:23.027Z,0.33
2019-04-28T09:20:51.432Z,0.20
2019-04-28T09:23:19.838Z,0.17
2019-04-28T09:25:48.252Z,0.37
2019-04-28T09:28:16.348Z,0.47
2019-04-28T09:30:44.840Z,0.40
2019-04-28T09:33:13.420Z,0.55
2019-04-28T09:35:41.891Z,0.30
2019-04-28T09:38:09.975Z,0.30
2019-04-28T09:40:38.081Z,0.33
2019-04-28T09:43:08.109Z,0.42
2019-04-28T09:45:38.174Z,0.10
2019-04-28T09:48:06.565Z,0.30
2019-04-28T09:50:34.639Z,0.37
2019-04-28T09:53:02.717Z,0.30
2019-04-28T09:55:32.893Z,0.20
2019-04-28T09:58:01.297Z,0.40
2019-04-28T10:00:49.096Z,0.53
2019-04-28T10:03:17.157Z,0.50
2019-04-28T10:05:45.636Z,0.17
2019-04-28T10:08:14.037Z,0.40
2019-04-28T10:10:42.456Z,0.37
2019-04-28T10:13:10.597Z,0.10
2019-04-28T10:15:39.005Z,0.28
2019-04-28T10:18:07.100Z,0.35
2019-04-28T10:20:35.247Z,0.30
2019-04-28T10:23:03.647Z,0.35
2019-04-28T10:25:32.571Z,0.20
2019-04-28T10:28:01.070Z,0.35
2019-04-28T10:30:29.478Z,0.25
2019-04-28T10:32:57.893Z,0.50
2019-04-28T10:35:25.959Z,0.37
2019-04-28T10:37:54.411Z,0.20
2019-04-28T10:40:28.372Z,0.33
2019-04-28T10:42:56.457Z,0.20
2019-04-28T10:45:26.162Z,0.15
2019-04-28T10:47:54.240Z,0.20
2019-04-28T10:50:22.317Z,0.20
2019-04-28T10:52:50.396Z,0.30
2019-04-28T10:55:19.090Z,0.17
2019-04-28T10:57:47.544Z,0.20
2019-04-28T11:00:17.336Z,0.20
2019-04-28T11:02:45.477Z,0.20
2019-04-28T11:05:24.553Z,0.28
2019-04-28T11:07:53.671Z,0.00
2019-04-28T11:10:22.422Z,0.20
2019-04-28T11:12:50.495Z,0.53
2019-04-28T11:15:20.277Z,0.50
2019-04-28T11:17:48.361Z,0.33
2019-04-28T11:20:16.895Z,0.30
2019-04-28T11:22:45.000Z,0.30
2019-04-28T11:25:13.465Z,0.20
2019-04-28T11:27:41.886Z,0.28
2019-04-28T11:30:11.244Z,0.20
2019-04-28T11:32:41.035Z,0.30
2019-04-28T11:35:20.866Z,0.50
2019-04-28T11:37:40.949Z,0.30
2019-04-28T11:40:09.837Z,0.47
2019-04-28T11:42:37.942Z,0.20
2019-04-28T11:45:26.969Z,0.30
2019-04-28T11:47:55.478Z,0.30
2019-04-28T11:50:23.872Z,0.35
2019-04-28T11:52:52.284Z,0.28
2019-04-28T11:55:20.760Z,0.40
2019-04-28T11:57:49.249Z,0.50
2019-04-28T12:00:31.906Z,0.37
2019-04-28T12:03:00.393Z,0.30
2019-04-28T12:05:34.781Z,0.37
2019-04-28T12:07:59.942Z,0.20
2019-04-28T12:10:29.964Z,0.30
2019-04-28T12:13:16.302Z,0.50
2019-04-28T12:15:49.157Z,0.47
2019-04-28T12:21:16.619Z,0.40
2019-04-28T12:23:45.121Z,0.47
2019-04-28T12:26:13.534Z,0.40
2019-04-28T12:28:41.951Z,0.37
2019-04-28T12:31:10.360Z,0.40
2019-04-28T12:33:38.766Z,0.30
2019-04-28T12:36:08.341Z,0.40
2019-04-28T12:38:36.763Z,0.70
2019-04-28T12:41:05.163Z,0.37
2019-04-28T12:43:33.713Z,0.33
2019-04-28T12:46:02.112Z,0.33
2019-04-28T12:48:32.680Z,0.50
2019-04-28T12:51:00.665Z,1.02
2019-04-28T12:53:28.751Z,0.20
2019-04-28T12:55:57.163Z,0.30
2019-04-28T12:58:25.573Z,0.30
2019-04-28T13:01:13.994Z,0.50
2019-04-28T13:03:44.037Z,0.40
2019-04-28T13:06:19.566Z,0.40
2019-04-28T13:08:47.981Z,0.28
2019-04-28T13:11:16.376Z,0.40
2019-04-28T13:13:46.857Z,0.50
2019-04-28T13:16:14.610Z,0.40
2019-04-28T13:18:43.170Z,0.50
2019-04-28T13:21:11.572Z,0.40
2019-04-28T13:23:39.976Z,0.50
2019-04-28T13:26:08.389Z,0.50
2019-04-28T13:28:55.890Z,0.50
2019-04-28T13:31:24.349Z,0.60
2019-04-28T13:33:56.243Z,0.80
2019-04-28T13:36:22.953Z,0.78
2019-04-28T13:38:51.399Z,0.47
2019-04-28T13:41:19.546Z,0.60
2019-04-28T13:43:47.984Z,0.70
2019-04-28T13:46:16.389Z,0.30
2019-04-28T13:48:49.223Z,0.65
2019-04-28T13:51:17.674Z,0.40
2019-04-28T13:53:46.160Z,0.45
2019-04-28T13:56:14.247Z,0.60
2019-04-28T13:58:43.217Z,0.50
2019-04-28T14:01:21.619Z,0.37
2019-04-28T14:03:51.658Z,0.30
2019-04-28T14:06:29.820Z,0.40
2019-04-28T14:08:58.272Z,0.50
2019-04-28T14:11:26.729Z,0.50
2019-04-28T14:13:55.128Z,0.60
2019-04-28T14:16:23.572Z,0.60
2019-04-28T14:18:51.982Z,0.78
2019-04-28T14:21:20.181Z,0.60
2019-04-28T14:23:48.639Z,0.60
2019-04-28T14:26:16.798Z,0.90
2019-04-28T14:28:44.998Z,0.50
2019-04-28T14:31:13.486Z,0.65
2019-04-28T14:33:41.933Z,0.60
2019-04-28T14:36:10.350Z,0.65
2019-04-28T14:38:38.433Z,0.45
2019-04-28T14:41:06.840Z,0.50
2019-04-28T14:43:35.249Z,0.60
2019-04-28T14:46:03.670Z,0.70
2019-04-28T14:48:32.072Z,0.72
2019-04-28T14:51:00.152Z,0.62
2019-04-28T14:53:29.037Z,0.53
2019-04-28T14:55:57.443Z,0.60
2019-04-28T14:58:25.923Z,0.60
2019-04-28T15:01:11.006Z,0.57
2019-04-28T15:03:41.082Z,0.60
2019-04-28T15:06:13.859Z,0.60
2019-04-28T15:08:43.942Z,0.60
2019-04-28T15:11:28.980Z,0.57
2019-04-28T15:13:57.910Z,0.70
2019-04-28T15:16:26.350Z,0.70
2019-04-28T15:18:54.816Z,0.40
2019-04-28T15:21:23.262Z,0.60
2019-04-28T15:23:51.672Z,0.50
2019-04-28T15:26:19.845Z,0.60
2019-04-28T15:28:47.941Z,0.60
2019-04-28T15:31:16.345Z,0.40
2019-04-28T15:33:44.496Z,0.45
2019-04-28T15:36:12.904Z,0.53
2019-04-28T15:38:41.304Z,0.65
2019-04-28T15:41:20.865Z,0.60
2019-04-28T15:43:41.436Z,0.50
2019-04-28T15:46:09.532Z,0.70
2019-04-28T15:48:37.942Z,0.55
2019-04-28T15:51:06.476Z,0.50
2019-04-28T15:53:36.541Z,0.45
2019-04-28T15:56:18.852Z,0.60
2019-04-28T15:58:47.303Z,0.53
2019-04-28T16:01:15.719Z,0.60
2019-04-28T16:03:44.133Z,0.60
2019-04-28T16:06:12.222Z,0.62
2019-04-28T16:08:40.637Z,0.60
2019-04-28T16:11:08.808Z,0.55
2019-04-28T16:13:37.281Z,0.60
2019-04-28T16:16:05.684Z,0.60
2019-04-28T16:18:33.785Z,0.80
2019-04-28T16:21:02.217Z,0.65
2019-04-28T16:23:30.315Z,0.35
2019-04-28T16:25:58.734Z,1.02
2019-04-28T16:28:27.153Z,0.53
2019-04-28T16:30:55.549Z,0.47
2019-04-28T16:33:23.641Z,0.50
2019-04-28T16:35:52.040Z,0.62
2019-04-28T16:38:20.469Z,0.60
2019-04-28T16:40:48.873Z,0.37
2019-04-28T16:43:16.949Z,0.40
2019-04-28T16:45:45.384Z,0.50
2019-04-28T16:48:13.865Z,0.40
2019-04-28T16:50:42.262Z,0.50
2019-04-28T16:53:11.532Z,0.50
2019-04-28T16:55:41.603Z,0.60
2019-04-28T16:58:28.071Z,0.50
2019-04-28T17:00:58.098Z,0.47
2019-04-28T17:03:28.172Z,0.50
2019-04-28T17:05:56.635Z,0.75
2019-04-28T17:08:25.041Z,0.72
2019-04-28T17:10:53.439Z,0.50
2019-04-28T17:13:21.887Z,0.60
2019-04-28T17:15:50.357Z,0.40
2019-04-28T17:18:18.445Z,0.47
2019-04-28T17:20:46.852Z,0.35
2019-04-28T17:23:14.936Z,0.70
2019-04-28T17:25:43.331Z,0.53
2019-04-28T17:28:12.018Z,0.53
2019-04-28T17:30:40.422Z,0.40
2019-04-28T17:33:08.847Z,0.35
2019-04-28T17:35:37.333Z,0.53
2019-04-28T17:38:07.007Z,0.50
2019-04-28T17:40:36.461Z,0.40
2019-04-28T17:43:05.012Z,0.40
2019-04-28T17:45:33.408Z,0.70
2019-04-28T17:48:09.068Z,0.33
2019-04-28T17:50:37.462Z,0.47
2019-04-28T17:53:06.038Z,0.40
2019-04-28T17:55:34.428Z,0.70
2019-04-28T17:58:02.850Z,0.50
2019-04-28T18:00:35.349Z,0.50
2019-04-28T18:03:05.397Z,0.47
2019-04-28T18:05:40.920Z,0.40
2019-04-28T18:08:20.539Z,0.40
2019-04-28T18:10:39.830Z,0.65
2019-04-28T18:13:08.311Z,0.65
2019-04-28T18:15:38.350Z,0.60
2019-04-28T18:18:16.965Z,0.60
2019-04-28T18:20:45.352Z,0.50
2019-04-28T18:23:13.508Z,0.60
2019-04-28T18:25:41.899Z,1.40
2019-04-28T18:28:09.977Z,0.57
2019-04-28T18:30:52.250Z,0.50
2019-04-28T18:33:28.194Z,0.50
2019-04-28T18:35:58.292Z,0.50
2019-04-28T18:38:35.130Z,0.53
2019-04-28T18:41:05.432Z,0.57
2019-04-28T18:43:47.684Z,0.80
2019-04-28T18:46:18.200Z,0.47
2019-04-28T18:48:46.708Z,0.40
2019-04-28T18:51:15.105Z,0.40
2019-04-28T18:53:44.567Z,0.45
2019-04-28T18:56:13.165Z,0.70
2019-04-28T18:58:41.580Z,0.65
2019-04-28T19:01:20.847Z,0.68
2019-04-28T19:03:49.251Z,0.40
2019-04-28T19:06:17.655Z,0.62
2019-04-28T19:08:59.447Z,0.80
2019-04-28T19:11:38.366Z,0.65
2019-04-28T19:14:08.409Z,0.70
2019-04-28T19:16:53.209Z,0.70
2019-04-28T19:19:26.213Z,0.57
2019-04-28T19:21:55.734Z,0.77
2019-04-28T19:24:25.467Z,0.60
2019-04-28T19:26:53.940Z,0.80
2019-04-28T19:29:22.347Z,0.60
2019-04-28T19:31:50.746Z,0.53
2019-04-28T19:34:19.151Z,0.50
2019-04-28T19:36:47.549Z,0.70
2019-04-28T19:39:15.977Z,0.80
2019-04-28T19:41:44.380Z,0.57
2019-04-28T19:44:12.796Z,0.80
2019-04-28T19:46:40.856Z,0.65
2019-04-28T19:49:28.601Z,1.10
2019-04-28T19:51:57.050Z,0.70
2019-04-28T19:54:27.104Z,0.70
2019-04-28T19:57:02.861Z,0.50
2019-04-28T19:59:49.336Z,0.80
2019-04-28T20:02:17.737Z,0.67
2019-04-28T20:04:46.141Z,0.80
2019-04-28T20:07:14.605Z,0.62
2019-04-28T20:09:43.007Z,0.63
2019-04-28T20:12:11.409Z,0.63
2019-04-28T20:14:39.820Z,0.70
2019-04-28T20:17:08.210Z,0.67
2019-04-28T20:19:36.283Z,0.78
2019-04-28T20:22:04.752Z,0.80
2019-04-28T20:24:33.962Z,0.75
2019-04-28T20:27:02.999Z,0.80
2019-04-28T20:29:31.377Z,0.63
2019-04-28T20:31:59.836Z,0.80
2019-04-28T20:34:28.274Z,1.00
2019-04-28T20:36:58.300Z,0.62
2019-04-28T20:39:28.332Z,0.33
2019-04-28T20:41:58.377Z,0.50
2019-04-28T20:44:26.768Z,0.60
2019-04-28T20:47:14.188Z,0.60
2019-04-28T20:49:42.585Z,0.60
2019-04-28T20:52:10.997Z,0.50
2019-04-28T20:54:39.390Z,0.30
2019-04-28T20:57:07.784Z,0.60
2019-04-28T20:59:36.182Z,0.53
2019-04-28T21:02:04.592Z,0.53
2019-04-28T21:04:33.027Z,0.53
2019-04-28T21:07:01.425Z,0.50
2019-04-28T21:09:29.503Z,0.50
2019-04-28T21:11:57.917Z,0.70
2019-04-28T21:14:26.308Z,0.60
2019-04-28T21:16:54.712Z,0.50
2019-04-28T21:19:23.105Z,0.43
2019-04-28T21:21:51.512Z,0.57
2019-04-28T21:24:19.924Z,0.50
2019-04-28T21:26:48.323Z,0.50
2019-04-28T21:29:16.392Z,0.50
2019-04-28T21:31:44.805Z,0.80
2019-04-28T21:34:12.882Z,0.53
2019-04-28T21:36:41.350Z,0.82
2019-04-28T21:39:09.752Z,0.50
2019-04-28T21:41:38.227Z,0.55
2019-04-28T21:44:19.823Z,0.50
2019-04-28T21:46:49.853Z,0.60
2019-04-28T21:49:22.845Z,0.50
2019-04-28T21:51:51.259Z,0.57
2019-04-28T21:54:19.653Z,0.50
2019-04-28T21:56:48.057Z,0.40
2019-04-28T21:59:16.447Z,0.40
2019-04-28T22:01:44.924Z,0.40
2019-04-28T22:04:13.325Z,0.60
2019-04-28T22:06:41.738Z,0.33
2019-04-28T22:09:10.305Z,0.50
2019-04-28T22:11:38.468Z,0.50
2019-04-28T22:14:06.865Z,0.47
2019-04-28T22:16:35.256Z,0.47
2019-04-28T22:19:03.336Z,0.30
2019-04-28T22:21:31.739Z,0.50
2019-04-28T22:24:01.903Z,0.40
2019-04-28T22:26:43.427Z,0.47
2019-04-28T22:29:12.764Z,0.30
2019-04-28T22:31:41.501Z,0.40
2019-04-28T22:34:10.590Z,0.33
2019-04-28T22:36:39.016Z,0.47
2019-04-28T22:39:07.861Z,0.30
2019-04-28T22:41:36.630Z,0.37
2019-04-28T22:44:05.889Z,0.30
2019-04-28T22:46:34.292Z,0.40
2019-04-28T22:49:04.508Z,0.50
2019-04-28T22:51:33.936Z,0.40
2019-04-28T22:54:21.165Z,0.43
2019-04-28T22:56:50.844Z,0.30
2019-04-28T22:59:23.597Z,0.43
2019-04-28T23:02:15.745Z,0.40
2019-04-28T23:04:45.860Z,0.30
2019-04-28T23:07:14.021Z,0.40
2019-04-28T23:09:42.417Z,0.50
2019-04-28T23:12:11.285Z,0.40
2019-04-28T23:14:39.690Z,0.50
2019-04-28T23:17:09.792Z,0.40
2019-04-28T23:19:39.832Z,0.60
2019-04-28T23:22:19.070Z,0.50
2019-04-28T23:24:47.493Z,0.30
2019-04-28T23:27:15.551Z,0.47
2019-04-28T23:29:43.956Z,0.60
2019-04-28T23:32:12.426Z,0.50
2019-04-28T23:34:40.825Z,0.40
2019-04-28T23:37:09.233Z,0.33
2019-04-28T23:39:37.629Z,0.40
2019-04-28T23:42:13.400Z,0.60
2019-04-28T23:44:41.808Z,0.70
2019-04-28T23:47:09.879Z,0.60
2019-04-28T23:49:38.281Z,0.50
2019-04-28T23:52:08.313Z,0.60
2019-04-28T23:54:38.034Z,0.50
2019-04-28T23:57:07.390Z,0.50
2019-04-28T23:59:36.126Z,0.57
